Time;durP1;ratioP1;P1;durP2;ratioP2;P2;SDS_P1;SDS_P2;PMS_P1;PMS_P2;Temp;Humidity;BMP_temperature;BMP_pressure;BME280_temperature;BME280_humidity;BME280_pressure;Samples;Min_cycle;Max_cycle;Signal;HPM_P1;HPM_P2
2021/06/28 00:00:55;;;;;;;3.38;2.72;;;19.00;87.50;;;;;;2067151;28;20035;-85
2021/06/28 00:01:55;;;;;;;3.28;2.55;;;19.00;87.40;;;;;;2066722;28;20018;-85
2021/06/28 00:02:57;;;;;;;3.50;2.67;;;19.00;87.40;;;;;;2073735;28;20068;-87
2021/06/28 00:03:58;;;;;;;3.95;2.90;;;19.00;87.40;;;;;;2072843;28;20116;-87
2021/06/28 00:04:59;;;;;;;3.53;2.80;;;19.00;87.40;;;;;;2065188;28;20027;-86
2021/06/28 00:06:00;;;;;;;3.85;2.95;;;18.90;87.20;;;;;;2076424;28;20036;-86
2021/06/28 00:07:00;;;;;;;4.13;2.70;;;19.00;87.40;;;;;;2076201;28;20030;-86
2021/06/28 00:08:01;;;;;;;3.70;2.72;;;19.00;87.30;;;;;;2072878;28;20034;-85
2021/06/28 00:09:03;;;;;;;3.63;2.67;;;19.00;87.20;;;;;;2075461;28;20033;-86
2021/06/28 00:10:06;;;;;;;3.95;2.83;;;19.00;87.20;;;;;;2073855;28;20058;-86
2021/06/28 00:11:08;;;;;;;4.38;2.90;;;19.00;87.20;;;;;;2075675;28;20034;-86
2021/06/28 00:12:09;;;;;;;3.83;2.80;;;19.00;87.20;;;;;;2079947;28;20138;-85
2021/06/28 00:13:09;;;;;;;3.90;2.88;;;19.00;87.90;;;;;;2067738;28;20034;-86
2021/06/28 00:14:10;;;;;;;3.70;2.70;;;19.00;87.30;;;;;;2077939;28;20108;-86
2021/06/28 00:15:15;;;;;;;4.18;3.03;;;19.00;87.30;;;;;;2066574;28;20065;-86
2021/06/28 00:16:16;;;;;;;3.22;2.63;;;19.00;87.30;;;;;;2071374;28;20604;-86
2021/06/28 00:17:16;;;;;;;4.97;2.90;;;19.00;87.30;;;;;;2069678;28;20173;-86
2021/06/28 00:18:19;;;;;;;4.18;2.97;;;19.00;87.20;;;;;;2063066;28;20082;-85
2021/06/28 00:19:20;;;;;;;3.60;2.58;;;19.00;87.30;;;;;;2057477;28;20065;-85
2021/06/28 00:20:20;;;;;;;3.88;2.95;;;19.00;88.00;;;;;;2077226;28;20088;-85
2021/06/28 00:21:21;;;;;;;3.42;2.80;;;19.00;87.40;;;;;;2065421;28;20037;-85
2021/06/28 00:22:22;;;;;;;3.75;2.90;;;19.00;87.40;;;;;;2064337;28;20122;-85
2021/06/28 00:23:23;;;;;;;3.63;2.88;;;18.90;87.50;;;;;;2064275;28;20118;-85
2021/06/28 00:24:24;;;;;;;3.67;3.03;;;18.90;87.50;;;;;;2048596;28;20050;-85
2021/06/28 00:25:25;;;;;;;3.78;2.88;;;18.90;87.50;;;;;;2058854;28;20026;-85
2021/06/28 00:26:25;;;;;;;4.25;3.05;;;18.90;87.60;;;;;;2047368;28;20554;-85
2021/06/28 00:27:26;;;;;;;3.60;2.90;;;18.90;87.60;;;;;;2079163;28;20046;-85
2021/06/28 00:28:27;;;;;;;3.83;2.67;;;18.90;87.60;;;;;;2074851;28;20022;-85
2021/06/28 00:29:27;;;;;;;3.63;2.70;;;18.90;87.60;;;;;;2065193;28;20477;-86
2021/06/28 00:30:36;;;;;;;3.53;2.72;;;18.90;87.60;;;;;;2078617;28;20030;-86
2021/06/28 00:31:38;;;;;;;3.75;3.05;;;18.90;87.60;;;;;;2071515;28;20033;-86
2021/06/28 00:32:40;;;;;;;3.30;2.80;;;18.90;87.60;;;;;;2073604;28;20041;-86
2021/06/28 00:33:40;;;;;;;3.83;2.85;;;18.90;87.60;;;;;;2072968;28;20033;-86
2021/06/28 00:34:41;;;;;;;3.58;2.80;;;18.90;88.20;;;;;;2073443;28;20044;-86
2021/06/28 00:35:43;;;;;;;3.45;2.65;;;18.90;87.70;;;;;;2065052;28;20057;-86
2021/06/28 00:36:43;;;;;;;3.83;2.95;;;18.90;87.70;;;;;;2072970;28;20399;-86
2021/06/28 00:37:45;;;;;;;3.50;2.80;;;18.90;87.80;;;;;;2072073;28;20042;-86
2021/06/28 00:38:46;;;;;;;4.22;3.22;;;18.80;87.80;;;;;;2058959;28;20035;-86
2021/06/28 00:39:47;;;;;;;3.83;2.70;;;18.80;87.80;;;;;;2065090;28;20026;-86
2021/06/28 00:40:47;;;;;;;3.97;3.00;;;18.80;87.90;;;;;;2056119;28;20422;-86
2021/06/28 00:41:48;;;;;;;3.40;2.70;;;18.80;87.90;;;;;;2065208;28;20481;-86
2021/06/28 00:42:49;;;;;;;4.50;2.70;;;18.80;88.00;;;;;;2082941;28;20065;-84
2021/06/28 00:43:50;;;;;;;3.47;2.65;;;18.80;88.00;;;;;;2093872;28;20024;-85
2021/06/28 00:44:54;;;;;;;4.18;3.17;;;18.80;88.00;;;;;;2092570;28;20022;-85
2021/06/28 00:45:55;;;;;;;4.45;2.67;;;18.80;88.60;;;;;;2080176;28;20006;-86
2021/06/28 00:46:56;;;;;;;4.30;3.20;;;18.80;88.00;;;;;;2076158;28;20034;-85
2021/06/28 00:48:02;;;;;;;3.80;2.70;;;18.80;88.10;;;;;;2067693;28;20026;-86
2021/06/28 00:49:03;;;;;;;4.00;2.90;;;18.80;88.00;;;;;;2067734;28;20021;-88
2021/06/28 00:50:04;;;;;;;4.05;3.15;;;18.80;88.00;;;;;;2073188;28;20069;-86
2021/06/28 00:51:04;;;;;;;4.00;3.05;;;18.80;88.00;;;;;;2078500;28;20037;-86
2021/06/28 00:52:05;;;;;;;3.75;2.88;;;18.80;87.90;;;;;;2057893;28;20109;-86
2021/06/28 00:53:09;;;;;;;4.25;3.35;;;18.80;87.90;;;;;;2069337;28;20027;-86
2021/06/28 00:54:10;;;;;;;4.30;2.92;;;18.80;88.00;;;;;;2083864;28;20075;-85
2021/06/28 00:55:12;;;;;;;3.72;2.80;;;18.80;87.90;;;;;;2084079;28;20030;-85
2021/06/28 00:56:12;;;;;;;3.97;3.08;;;18.70;87.80;;;;;;2083483;28;20297;-86
2021/06/28 00:57:13;;;;;;;3.50;2.90;;;18.70;87.90;;;;;;2082993;28;20009;-85
2021/06/28 00:58:15;;;;;;;4.13;3.13;;;18.70;87.90;;;;;;2088177;28;20063;-87
2021/06/28 00:59:17;;;;;;;3.40;2.70;;;18.70;88.50;;;;;;2071355;28;20022;-86
2021/06/28 01:00:19;;;;;;;3.88;3.05;;;18.70;87.90;;;;;;2074225;28;20404;-85
2021/06/28 01:01:19;;;;;;;3.33;2.75;;;18.70;87.90;;;;;;2076129;28;20486;-86
2021/06/28 01:02:20;;;;;;;3.95;3.13;;;18.70;87.80;;;;;;2066917;28;20492;-86
2021/06/28 01:03:20;;;;;;;3.53;3.00;;;18.70;87.80;;;;;;2057246;28;20073;-86
2021/06/28 01:04:21;;;;;;;4.38;3.40;;;18.70;87.80;;;;;;2064450;28;20491;-86
2021/06/28 01:05:24;;;;;;;3.85;3.13;;;18.70;87.80;;;;;;2071043;28;20021;-85
2021/06/28 01:06:24;;;;;;;5.43;3.30;;;18.70;87.80;;;;;;2064580;28;20081;-86
2021/06/28 01:07:27;;;;;;;4.10;3.35;;;18.70;87.80;;;;;;2072224;28;20127;-85
2021/06/28 01:08:28;;;;;;;4.28;3.35;;;18.70;87.80;;;;;;2067864;28;20162;-86
2021/06/28 01:09:28;;;;;;;4.35;3.40;;;18.70;88.40;;;;;;2061708;28;20505;-86
2021/06/28 01:10:30;;;;;;;3.90;3.05;;;18.70;87.80;;;;;;2074246;28;20018;-85
2021/06/28 01:11:30;;;;;;;4.15;3.05;;;18.70;87.80;;;;;;2080033;28;20048;-85
2021/06/28 01:12:31;;;;;;;4.10;3.50;;;18.60;87.70;;;;;;2073267;28;20038;-86
2021/06/28 01:13:40;;;;;;;4.40;3.58;;;18.60;87.80;;;;;;2062185;28;20039;-86
2021/06/28 01:14:41;;;;;;;3.88;3.20;;;18.60;87.80;;;;;;2070563;28;20019;-86
2021/06/28 01:15:42;;;;;;;4.68;3.28;;;18.60;87.80;;;;;;2074821;28;20050;-85
2021/06/28 01:16:44;;;;;;;4.70;3.47;;;18.60;87.80;;;;;;2077853;28;20026;-85
2021/06/28 01:17:45;;;;;;;4.57;3.63;;;18.60;87.80;;;;;;2078253;28;20093;-85
2021/06/28 01:18:46;;;;;;;4.25;3.50;;;18.60;87.80;;;;;;2087892;28;20526;-86
2021/06/28 01:19:55;;;;;;;4.85;3.50;;;18.60;87.80;;;;;;2072412;28;20080;-85
2021/06/28 01:20:58;;;;;;;4.20;3.25;;;18.60;87.90;;;;;;2074563;28;20026;-86
2021/06/28 01:22:03;;;;;;;4.25;3.17;;;18.60;87.80;;;;;;2081380;28;20053;-86
2021/06/28 01:23:09;;;;;;;4.05;3.28;;;18.60;87.90;;;;;;2078944;28;20045;-86
2021/06/28 01:24:11;;;;;;;4.53;3.42;;;18.60;87.90;;;;;;2080656;28;20025;-87
2021/06/28 01:25:15;;;;;;;4.38;2.97;;;18.60;87.80;;;;;;2076505;28;20087;-86
2021/06/28 01:26:15;;;;;;;4.25;3.30;;;18.60;87.90;;;;;;2087176;28;20027;-86
2021/06/28 01:27:16;;;;;;;3.97;3.10;;;18.60;87.80;;;;;;2073910;28;20392;-86
2021/06/28 01:28:17;;;;;;;4.15;3.30;;;18.60;87.80;;;;;;2070173;28;20503;-86
2021/06/28 01:29:18;;;;;;;4.45;3.10;;;18.60;87.90;;;;;;2070110;28;20037;-86
2021/06/28 01:30:23;;;;;;;3.90;3.00;;;18.60;87.90;;;;;;2075954;28;20080;-85
2021/06/28 01:31:23;;;;;;;4.25;3.22;;;18.60;87.90;;;;;;2081751;28;20029;-86
2021/06/28 01:32:26;;;;;;;4.10;3.17;;;18.50;87.90;;;;;;2075593;28;20400;-86
2021/06/28 01:33:27;;;;;;;3.83;3.03;;;18.50;87.90;;;;;;2066849;28;20030;-86
2021/06/28 01:34:28;;;;;;;4.63;3.42;;;18.50;88.00;;;;;;2074161;28;20113;-86
2021/06/28 01:35:29;;;;;;;5.05;3.45;;;18.60;88.00;;;;;;2056998;28;20031;-85
2021/06/28 01:36:29;;;;;;;4.38;3.40;;;18.50;87.90;;;;;;2055881;28;20041;-86
2021/06/28 01:37:30;;;;;;;4.25;3.42;;;18.50;87.90;;;;;;2062845;28;20034;-85
2021/06/28 01:38:32;;;;;;;3.63;2.83;;;18.50;87.90;;;;;;2052866;28;20471;-85
2021/06/28 01:39:33;;;;;;;4.53;3.35;;;18.50;87.90;;;;;;2074718;28;20058;-85
2021/06/28 01:40:34;;;;;;;4.50;3.50;;;18.60;88.60;;;;;;2064803;28;20027;-85
2021/06/28 01:41:35;;;;;;;4.03;3.20;;;18.60;88.00;;;;;;2063566;28;20054;-85
2021/06/28 01:42:36;;;;;;;4.63;3.50;;;18.50;87.90;;;;;;2070200;28;20427;-85
2021/06/28 01:43:36;;;;;;;5.35;3.60;;;18.50;88.00;;;;;;2064232;28;20452;-86
2021/06/28 01:44:37;;;;;;;4.28;3.30;;;18.50;87.90;;;;;;2071278;28;20129;-86
2021/06/28 01:45:38;;;;;;;4.00;3.22;;;18.50;87.90;;;;;;2068730;28;20029;-86
2021/06/28 01:46:39;;;;;;;4.50;3.65;;;18.50;87.90;;;;;;2064558;28;20034;-87
2021/06/28 01:47:41;;;;;;;5.07;3.20;;;18.50;88.00;;;;;;2070791;28;20057;-86
2021/06/28 01:48:43;;;;;;;4.82;3.38;;;18.50;88.00;;;;;;2076749;28;20033;-85
2021/06/28 01:49:45;;;;;;;4.20;3.40;;;18.50;88.00;;;;;;2075103;28;20030;-86
2021/06/28 01:50:46;;;;;;;4.30;3.33;;;18.50;88.00;;;;;;2085700;28;20067;-85
2021/06/28 01:51:46;;;;;;;3.72;3.15;;;18.50;88.00;;;;;;2077641;28;20480;-86
2021/06/28 01:52:47;;;;;;;4.10;3.30;;;18.50;88.10;;;;;;2070646;28;20436;-85
2021/06/28 01:53:48;;;;;;;4.18;3.30;;;18.60;88.10;;;;;;2073935;28;20034;-85
2021/06/28 01:54:49;;;;;;;3.90;3.17;;;18.60;88.10;;;;;;2074973;28;20125;-85
2021/06/28 01:55:49;;;;;;;5.97;3.78;;;18.50;88.00;;;;;;2077488;28;20037;-85
2021/06/28 01:56:50;;;;;;;4.82;3.60;;;18.50;88.00;;;;;;2065933;28;20077;-85
2021/06/28 01:57:53;;;;;;;5.70;3.30;;;18.50;88.00;;;;;;2078382;28;20037;-85
2021/06/28 01:58:55;;;;;;;3.90;3.30;;;18.50;88.00;;;;;;2076116;28;20045;-85
2021/06/28 01:59:55;;;;;;;3.88;2.95;;;18.50;88.00;;;;;;2072332;28;20504;-85
2021/06/28 02:00:57;;;;;;;4.18;3.20;;;18.50;88.00;;;;;;2059847;28;20026;-86
2021/06/28 02:01:59;;;;;;;4.50;3.30;;;18.50;88.00;;;;;;2057814;28;20018;-85
2021/06/28 02:03:01;;;;;;;4.60;3.50;;;18.50;88.00;;;;;;2080269;28;20030;-85
2021/06/28 02:04:02;;;;;;;3.95;3.22;;;18.50;88.00;;;;;;2078630;28;20041;-85
2021/06/28 02:05:05;;;;;;;4.90;3.63;;;18.50;87.90;;;;;;2079196;28;20029;-85
2021/06/28 02:06:06;;;;;;;4.38;3.45;;;18.50;87.90;;;;;;2079941;28;20029;-86
2021/06/28 02:07:08;;;;;;;5.90;3.42;;;18.50;87.90;;;;;;2073419;28;20467;-86
2021/06/28 02:08:11;;;;;;;4.68;3.60;;;18.50;88.00;;;;;;2071001;28;20033;-86
2021/06/28 02:09:11;;;;;;;4.60;3.53;;;18.50;88.00;;;;;;2084948;28;20505;-85
2021/06/28 02:10:12;;;;;;;4.43;3.53;;;18.50;88.00;;;;;;2065861;28;20022;-86
2021/06/28 02:11:13;;;;;;;4.47;3.42;;;18.50;88.00;;;;;;2056720;28;20109;-85
2021/06/28 02:12:14;;;;;;;4.55;3.33;;;18.50;88.00;;;;;;2080376;28;20037;-86
2021/06/28 02:13:23;;;;;;;4.63;3.67;;;18.50;88.00;;;;;;2079919;28;20029;-85
2021/06/28 02:14:23;;;;;;;4.45;3.15;;;18.50;88.10;;;;;;2073021;28;20022;-85
2021/06/28 02:15:29;;;;;;;3.92;3.10;;;18.50;88.00;;;;;;2064348;28;20516;-85
2021/06/28 02:16:30;;;;;;;3.72;3.03;;;18.50;88.00;;;;;;2075748;28;20113;-85
2021/06/28 02:17:31;;;;;;;4.43;3.30;;;18.50;87.90;;;;;;2073629;28;20045;-85
2021/06/28 02:18:31;;;;;;;5.10;3.63;;;18.50;87.90;;;;;;2057020;28;20035;-85
2021/06/28 02:19:32;;;;;;;4.13;3.33;;;18.50;88.50;;;;;;2072330;28;20423;-86
2021/06/28 02:20:33;;;;;;;4.25;3.30;;;18.50;87.90;;;;;;2071928;28;20061;-85
2021/06/28 02:21:34;;;;;;;4.35;3.50;;;18.50;87.90;;;;;;2064164;28;20018;-85
2021/06/28 02:22:37;;;;;;;3.97;3.08;;;18.50;88.00;;;;;;2063235;28;20057;-85
2021/06/28 02:23:39;;;;;;;3.72;2.97;;;18.50;88.00;;;;;;2073478;28;20121;-85
2021/06/28 02:24:40;;;;;;;5.13;3.30;;;18.50;88.00;;;;;;2086188;28;20036;-85
2021/06/28 02:25:40;;;;;;;4.50;3.60;;;18.50;88.00;;;;;;2079538;28;20045;-85
2021/06/28 02:26:43;;;;;;;3.90;3.20;;;18.50;88.00;;;;;;2072531;28;20057;-85
2021/06/28 02:27:44;;;;;;;4.63;3.65;;;18.50;88.00;;;;;;2064583;28;20027;-85
2021/06/28 02:28:50;;;;;;;4.07;3.25;;;18.40;87.90;;;;;;2067382;28;20038;-85
2021/06/28 02:29:50;;;;;;;4.70;3.30;;;18.40;88.00;;;;;;2065303;28;20030;-85
2021/06/28 02:30:52;;;;;;;4.50;3.40;;;18.40;88.60;;;;;;2067165;28;20037;-86
2021/06/28 02:31:52;;;;;;;3.97;3.03;;;18.40;88.00;;;;;;2074584;28;20619;-85
2021/06/28 02:32:53;;;;;;;4.20;3.17;;;18.40;88.00;;;;;;2067911;28;20034;-86
2021/06/28 02:33:55;;;;;;;4.38;3.50;;;18.40;88.00;;;;;;2070884;28;20068;-86
2021/06/28 02:34:55;;;;;;;3.75;3.10;;;18.40;87.70;;;;;;2064631;28;20022;-87
2021/06/28 02:35:56;;;;;;;4.57;3.25;;;18.40;88.10;;;;;;2072810;28;20030;-86
2021/06/28 02:36:57;;;;;;;4.30;3.55;;;18.40;88.20;;;;;;2083373;28;20079;-86
2021/06/28 02:37:58;;;;;;;3.95;2.92;;;18.40;88.20;;;;;;2075479;28;20111;-86
2021/06/28 02:39:00;;;;;;;3.53;3.00;;;18.40;88.30;;;;;;2055520;28;20061;-86
2021/06/28 02:40:01;;;;;;;4.05;3.15;;;18.30;88.30;;;;;;2067014;28;20509;-87
2021/06/28 02:41:03;;;;;;;4.22;3.20;;;18.30;88.40;;;;;;2076158;28;20079;-86
2021/06/28 02:42:04;;;;;;;4.07;2.95;;;18.30;88.40;;;;;;2072872;28;20030;-87
2021/06/28 02:43:05;;;;;;;4.50;3.30;;;18.20;88.50;;;;;;2062813;28;20026;-87
2021/06/28 02:44:06;;;;;;;4.07;3.08;;;18.30;88.60;;;;;;2053702;28;20031;-87
2021/06/28 02:45:08;;;;;;;4.32;3.30;;;18.30;88.70;;;;;;2055030;28;20130;-87
2021/06/28 02:46:11;;;;;;;4.20;3.40;;;18.20;88.60;;;;;;2051321;28;20478;-86
2021/06/28 02:47:11;;;;;;;4.78;3.30;;;18.30;88.70;;;;;;2055470;28;20069;-87
2021/06/28 02:48:12;;;;;;;4.55;3.60;;;18.20;89.30;;;;;;2066766;28;20120;-86
2021/06/28 02:49:13;;;;;;;4.28;3.15;;;18.20;88.70;;;;;;2073448;28;20037;-86
2021/06/28 02:50:15;;;;;;;4.10;3.25;;;18.20;88.70;;;;;;2059563;28;20037;-86
2021/06/28 02:51:17;;;;;;;4.30;3.40;;;18.20;88.80;;;;;;2053982;28;20098;-86
2021/06/28 02:52:17;;;;;;;3.65;3.13;;;18.20;88.70;;;;;;2064693;28;20028;-86
2021/06/28 02:53:18;;;;;;;4.20;3.30;;;18.20;88.80;;;;;;2063548;28;20047;-86
2021/06/28 02:54:19;;;;;;;4.50;3.40;;;18.20;88.80;;;;;;2069534;28;20056;-86
2021/06/28 02:55:20;;;;;;;4.45;3.35;;;18.20;88.80;;;;;;2059019;28;20019;-86
2021/06/28 02:56:21;;;;;;;4.03;3.05;;;18.20;88.70;;;;;;2055915;28;20054;-86
2021/06/28 02:57:21;;;;;;;4.22;3.20;;;18.20;88.80;;;;;;2065162;28;20042;-86
2021/06/28 02:58:22;;;;;;;3.60;3.00;;;18.20;88.80;;;;;;2078325;28;20377;-87
2021/06/28 02:59:23;;;;;;;4.05;3.20;;;18.20;88.80;;;;;;2078549;28;20037;-86
2021/06/28 03:00:24;;;;;;;3.95;2.97;;;18.10;88.70;;;;;;2072999;28;20517;-86
2021/06/28 03:01:27;;;;;;;5.30;3.40;;;18.20;88.80;;;;;;2066501;28;20034;-86
2021/06/28 03:02:27;;;;;;;3.65;3.00;;;18.10;88.70;;;;;;2067553;28;20578;-86
2021/06/28 03:03:28;;;;;;;3.90;3.20;;;18.20;88.70;;;;;;2066156;28;20030;-86
2021/06/28 03:04:29;;;;;;;3.80;2.95;;;18.10;88.70;;;;;;2068727;28;20085;-87
2021/06/28 03:05:29;;;;;;;4.03;3.15;;;18.10;88.80;;;;;;2063987;28;20105;-87
2021/06/28 03:06:30;;;;;;;4.80;3.38;;;18.10;88.80;;;;;;2074070;28;20124;-86
2021/06/28 03:07:31;;;;;;;4.25;3.17;;;18.10;88.80;;;;;;2074130;28;20022;-85
2021/06/28 03:08:32;;;;;;;3.78;3.00;;;18.10;88.80;;;;;;2057398;28;20493;-86
2021/06/28 03:09:32;;;;;;;3.28;2.70;;;18.10;88.90;;;;;;2067366;28;20046;-86
2021/06/28 03:10:34;;;;;;;4.15;3.17;;;18.10;89.00;;;;;;2065924;28;20508;-87
2021/06/28 03:11:35;;;;;;;4.20;3.13;;;18.00;89.00;;;;;;2072519;28;20060;-86
2021/06/28 03:12:36;;;;;;;4.18;2.80;;;18.10;89.00;;;;;;2072372;28;20117;-87
2021/06/28 03:13:38;;;;;;;3.92;3.13;;;18.00;89.60;;;;;;2074097;28;20416;-87
2021/06/28 03:14:40;;;;;;;3.60;2.90;;;18.00;89.00;;;;;;2089551;28;20017;-87
2021/06/28 03:15:41;;;;;;;3.65;2.83;;;18.00;89.00;;;;;;2084390;28;20471;-86
2021/06/28 03:16:41;;;;;;;4.25;3.03;;;18.00;89.00;;;;;;2081617;28;20100;-87
2021/06/28 03:17:42;;;;;;;4.05;3.08;;;18.10;89.00;;;;;;2065195;28;20030;-87
2021/06/28 03:18:44;;;;;;;3.80;2.90;;;18.10;89.00;;;;;;2078500;28;20119;-86
2021/06/28 03:19:45;;;;;;;3.58;2.80;;;18.00;88.90;;;;;;2067322;28;20022;-87
2021/06/28 03:20:45;;;;;;;3.90;2.90;;;18.00;89.00;;;;;;2079779;28;20026;-87
2021/06/28 03:21:46;;;;;;;3.55;2.67;;;18.00;89.00;;;;;;2058804;28;20078;-87
2021/06/28 03:22:47;;;;;;;3.35;2.65;;;18.00;89.00;;;;;;2055260;28;20027;-88
2021/06/28 03:23:48;;;;;;;3.50;2.78;;;18.00;89.10;;;;;;2067786;28;20065;-86
2021/06/28 03:24:48;;;;;;;3.97;3.00;;;18.00;89.10;;;;;;2074900;28;20028;-86
2021/06/28 03:25:49;;;;;;;3.63;2.83;;;18.00;89.20;;;;;;2074057;28;20144;-86
2021/06/28 03:26:50;;;;;;;4.93;3.13;;;17.90;89.10;;;;;;2078665;28;20483;-86
2021/06/28 03:27:51;;;;;;;3.85;2.95;;;18.00;89.20;;;;;;2073408;28;20033;-87
2021/06/28 03:28:51;;;;;;;3.40;2.63;;;18.00;89.20;;;;;;2073668;28;20511;-86
2021/06/28 03:29:54;;;;;;;3.88;2.92;;;18.00;89.20;;;;;;2066974;28;20030;-86
2021/06/28 03:30:54;;;;;;;3.80;3.00;;;17.90;89.80;;;;;;2072275;28;20030;-86
2021/06/28 03:31:55;;;;;;;4.13;3.20;;;17.90;89.20;;;;;;2063075;28;20026;-87
2021/06/28 03:32:56;;;;;;;3.90;3.00;;;17.90;89.30;;;;;;2070925;28;20038;-87
2021/06/28 03:33:56;;;;;;;4.07;2.90;;;17.90;89.30;;;;;;2080028;28;20025;-87
2021/06/28 03:34:57;;;;;;;5.50;2.80;;;17.90;89.30;;;;;;2074785;28;20365;-87
2021/06/28 03:35:58;;;;;;;3.65;2.83;;;17.90;89.30;;;;;;2073566;28;20113;-87
2021/06/28 03:36:58;;;;;;;3.88;2.90;;;17.90;89.30;;;;;;2080286;28;20108;-86
2021/06/28 03:38:00;;;;;;;4.40;3.30;;;18.00;89.40;;;;;;2071426;28;20034;-86
2021/06/28 03:39:00;;;;;;;3.65;2.85;;;18.00;89.40;;;;;;2055584;28;20034;-86
2021/06/28 03:40:01;;;;;;;4.82;3.20;;;18.00;89.30;;;;;;2065846;28;20109;-86
2021/06/28 03:41:02;;;;;;;3.78;2.85;;;18.00;89.80;;;;;;2073003;28;20033;-85
2021/06/28 03:42:03;;;;;;;3.67;2.72;;;18.00;89.20;;;;;;2076268;28;20057;-86
2021/06/28 03:43:09;;;;;;;4.97;3.08;;;18.00;89.20;;;;;;2072923;28;20454;-86
2021/06/28 03:44:09;;;;;;;3.53;2.97;;;17.90;89.20;;;;;;2067822;28;20030;-86
2021/06/28 03:45:12;;;;;;;3.92;2.92;;;17.90;89.90;;;;;;2081927;28;20089;-86
2021/06/28 03:46:13;;;;;;;4.07;3.20;;;17.90;89.30;;;;;;2082113;28;20491;-86
2021/06/28 03:47:13;;;;;;;3.67;3.00;;;17.90;89.30;;;;;;2081772;28;20033;-86
2021/06/28 03:48:14;;;;;;;4.50;3.25;;;17.90;89.30;;;;;;2066997;28;20403;-86
2021/06/28 03:49:15;;;;;;;3.63;2.90;;;17.90;89.30;;;;;;2070086;28;20033;-86
2021/06/28 03:50:17;;;;;;;4.88;3.40;;;17.90;89.30;;;;;;2065680;28;20046;-86
2021/06/28 03:51:18;;;;;;;4.25;3.50;;;17.90;89.30;;;;;;2073549;28;20451;-86
2021/06/28 03:52:18;;;;;;;4.07;3.20;;;17.90;89.40;;;;;;2078201;28;20411;-87
2021/06/28 03:53:20;;;;;;;4.68;3.17;;;17.90;90.00;;;;;;2065371;28;20036;-86
2021/06/28 03:54:20;;;;;;;5.53;3.10;;;17.90;89.40;;;;;;2071119;28;20075;-87
2021/06/28 03:55:21;;;;;;;4.20;3.35;;;17.90;89.40;;;;;;2066487;28;20507;-86
2021/06/28 03:56:22;;;;;;;4.10;3.30;;;17.90;89.30;;;;;;2064217;28;20079;-86
2021/06/28 03:57:22;;;;;;;4.13;3.15;;;17.90;89.40;;;;;;2075211;28;20037;-86
2021/06/28 03:58:23;;;;;;;4.22;3.30;;;17.90;89.30;;;;;;2067414;28;20073;-87
2021/06/28 03:59:24;;;;;;;4.43;3.33;;;17.90;89.30;;;;;;2065498;28;20038;-86
2021/06/28 04:00:26;;;;;;;4.65;3.10;;;17.90;89.40;;;;;;2074908;28;20037;-86
2021/06/28 04:01:27;;;;;;;4.20;3.40;;;17.90;89.30;;;;;;2086367;28;20079;-86
2021/06/28 04:02:28;;;;;;;4.50;3.47;;;18.00;89.30;;;;;;2072607;28;20097;-86
2021/06/28 04:03:31;;;;;;;4.35;3.40;;;18.00;89.30;;;;;;2068642;28;20053;-86
2021/06/28 04:04:32;;;;;;;4.25;3.20;;;18.00;89.20;;;;;;2063533;28;20078;-87
2021/06/28 04:05:33;;;;;;;4.75;3.42;;;18.00;89.30;;;;;;2058248;28;20034;-86
2021/06/28 04:06:34;;;;;;;3.90;3.13;;;18.00;89.30;;;;;;2055283;28;20173;-86
2021/06/28 04:07:35;;;;;;;5.20;3.50;;;18.00;89.30;;;;;;2060459;28;20043;-87
2021/06/28 04:08:38;;;;;;;4.53;3.28;;;17.90;89.20;;;;;;2073915;28;20026;-86
2021/06/28 04:09:38;;;;;;;3.80;2.97;;;18.00;89.30;;;;;;2078334;28;20041;-86
2021/06/28 04:10:39;;;;;;;4.10;3.30;;;18.00;89.30;;;;;;2065410;28;20062;-86
2021/06/28 04:11:40;;;;;;;4.38;3.30;;;17.90;89.30;;;;;;2065622;28;20043;-85
2021/06/28 04:12:41;;;;;;;4.22;3.35;;;18.00;89.90;;;;;;2057663;28;20027;-86
2021/06/28 04:13:41;;;;;;;4.15;3.10;;;18.00;89.30;;;;;;2070218;28;20123;-86
2021/06/28 04:14:42;;;;;;;4.53;3.38;;;18.00;89.20;;;;;;2070336;28;20057;-86
2021/06/28 04:15:43;;;;;;;4.07;3.42;;;18.10;89.20;;;;;;2061219;28;20030;-86
2021/06/28 04:16:43;;;;;;;3.88;3.10;;;18.00;89.10;;;;;;2053161;28;20066;-86
2021/06/28 04:17:47;;;;;;;4.60;3.40;;;18.10;89.10;;;;;;2065229;28;20135;-86
2021/06/28 04:18:48;;;;;;;4.53;3.25;;;18.10;89.00;;;;;;2064694;28;20023;-86
2021/06/28 04:19:48;;;;;;;5.35;3.70;;;18.10;88.90;;;;;;2076179;28;20029;-86
2021/06/28 04:20:49;;;;;;;3.70;3.00;;;18.10;88.90;;;;;;2069230;28;20026;-87
2021/06/28 04:21:50;;;;;;;3.85;3.00;;;18.10;88.90;;;;;;2058431;28;20130;-86
2021/06/28 04:22:51;;;;;;;5.20;3.40;;;18.10;88.80;;;;;;2057495;28;20066;-86
2021/06/28 04:23:52;;;;;;;4.15;3.50;;;18.20;88.90;;;;;;2067693;28;20373;-86
2021/06/28 04:24:52;;;;;;;4.53;3.50;;;18.20;88.80;;;;;;2061071;28;20089;-87
2021/06/28 04:25:53;;;;;;;4.38;3.25;;;18.20;88.70;;;;;;2063730;28;20060;-86
2021/06/28 04:26:54;;;;;;;4.55;3.70;;;18.20;88.70;;;;;;2075529;28;20057;-86
2021/06/28 04:27:54;;;;;;;4.35;3.22;;;18.20;88.60;;;;;;2072862;28;20040;-85
2021/06/28 04:28:55;;;;;;;3.90;3.25;;;18.20;88.60;;;;;;2064936;28;20466;-87
2021/06/28 04:29:56;;;;;;;4.30;3.38;;;18.20;88.60;;;;;;2064774;28;20152;-86
2021/06/28 04:30:57;;;;;;;4.95;3.70;;;18.20;88.60;;;;;;2071607;28;20030;-86
2021/06/28 04:31:58;;;;;;;5.35;3.38;;;18.30;88.60;;;;;;2054484;28;20027;-86
2021/06/28 04:32:59;;;;;;;4.68;3.53;;;18.30;88.60;;;;;;2057362;28;20039;-86
2021/06/28 04:33:59;;;;;;;5.05;3.65;;;18.30;88.60;;;;;;2068578;28;20022;-86
2021/06/28 04:35:00;;;;;;;4.55;3.55;;;18.30;88.60;;;;;;2068441;28;20385;-86
2021/06/28 04:36:01;;;;;;;4.90;3.70;;;18.30;88.60;;;;;;2056484;28;20027;-86
2021/06/28 04:37:02;;;;;;;4.50;3.50;;;18.30;88.60;;;;;;2072926;28;20041;-86
2021/06/28 04:38:02;;;;;;;4.70;3.17;;;18.30;88.60;;;;;;2063740;28;20476;-86
2021/06/28 04:39:04;;;;;;;5.07;3.80;;;18.30;88.50;;;;;;2077844;28;20393;-86
2021/06/28 04:40:07;;;;;;;4.15;3.25;;;18.30;88.50;;;;;;2071308;28;20022;-86
2021/06/28 04:41:07;;;;;;;4.35;3.33;;;18.40;88.50;;;;;;2061577;28;20023;-86
2021/06/28 04:42:08;;;;;;;4.13;3.35;;;18.40;88.40;;;;;;2065450;28;20118;-86
2021/06/28 04:43:09;;;;;;;4.68;3.70;;;18.40;88.30;;;;;;2070986;28;20409;-87
2021/06/28 04:44:09;;;;;;;5.00;3.88;;;18.50;88.30;;;;;;2048641;28;20034;-86
2021/06/28 04:45:12;;;;;;;5.63;3.47;;;18.50;88.20;;;;;;2048851;28;20035;-86
2021/06/28 04:46:13;;;;;;;4.70;3.38;;;18.50;88.10;;;;;;2069812;28;20026;-86
2021/06/28 04:47:13;;;;;;;4.15;3.25;;;18.60;88.00;;;;;;2063517;28;20053;-85
2021/06/28 04:48:15;;;;;;;4.53;3.70;;;18.60;88.00;;;;;;2068491;28;20381;-85
2021/06/28 04:49:15;;;;;;;4.38;3.50;;;18.60;87.90;;;;;;2080834;28;20029;-87
2021/06/28 04:50:18;;;;;;;4.18;3.40;;;18.70;87.80;;;;;;2066350;28;20027;-86
2021/06/28 04:51:19;;;;;;;4.50;3.53;;;18.70;87.70;;;;;;2068273;28;20112;-86
2021/06/28 04:52:20;;;;;;;4.80;3.67;;;18.70;87.50;;;;;;2066564;28;20030;-86
2021/06/28 04:53:20;;;;;;;6.00;3.90;;;18.80;87.50;;;;;;2071319;28;20121;-86
2021/06/28 04:54:21;;;;;;;4.88;3.83;;;18.90;87.30;;;;;;2063864;28;20050;-85
2021/06/28 04:55:22;;;;;;;4.68;3.78;;;18.90;87.20;;;;;;2068519;28;20027;-85
2021/06/28 04:56:23;;;;;;;4.60;3.50;;;18.90;87.10;;;;;;2073870;28;20006;-87
2021/06/28 04:57:24;;;;;;;6.30;4.15;;;19.00;87.10;;;;;;2079503;28;20041;-86
2021/06/28 04:58:25;;;;;;;4.72;3.83;;;19.00;86.90;;;;;;2066077;28;20030;-86
2021/06/28 04:59:25;;;;;;;5.10;3.92;;;19.20;86.90;;;;;;2081366;28;20041;-86
2021/06/28 05:00:26;;;;;;;4.88;3.72;;;19.20;86.70;;;;;;2065976;28;20117;-87
2021/06/28 05:01:27;;;;;;;4.80;3.60;;;19.30;86.60;;;;;;2057154;28;20409;-87
2021/06/28 05:02:27;;;;;;;4.55;3.60;;;19.40;86.50;;;;;;2073678;28;20025;-88
2021/06/28 05:03:28;;;;;;;4.07;3.22;;;19.40;86.30;;;;;;2068106;28;20093;-87
2021/06/28 05:04:29;;;;;;;4.15;3.30;;;19.50;86.20;;;;;;2080955;28;20030;-84
2021/06/28 05:05:29;;;;;;;4.35;3.47;;;19.60;86.10;;;;;;2084244;28;20049;-87
2021/06/28 05:06:30;;;;;;;4.65;3.53;;;19.70;86.00;;;;;;2075909;28;20002;-88
2021/06/28 05:07:31;;;;;;;4.40;3.63;;;19.70;85.80;;;;;;2087363;28;20010;-85
2021/06/28 05:08:32;;;;;;;4.32;3.60;;;19.80;85.60;;;;;;2093287;28;20032;-89
2021/06/28 05:09:33;;;;;;;4.38;3.55;;;19.90;85.50;;;;;;2083577;28;20057;-89
2021/06/28 05:10:33;;;;;;;4.63;3.42;;;19.90;85.30;;;;;;2077983;28;20064;-90
2021/06/28 05:11:35;;;;;;;4.00;3.17;;;20.00;85.10;;;;;;2078139;28;20025;-96
2021/06/28 05:12:36;;;;;;;4.65;3.53;;;20.10;85.10;;;;;;2080870;28;20036;-96
2021/06/28 05:14:04;;;;;;;4.72;3.40;;;20.10;84.80;;;;;;2076095;28;20141;-96
2021/06/28 05:15:18;;;;;;;4.38;3.60;;;20.20;84.70;;;;;;2078620;28;20049;-96
2021/06/28 05:16:19;;;;;;;4.75;3.78;;;20.30;84.50;;;;;;2088060;28;20047;-96
2021/06/28 05:17:24;;;;;;;4.40;3.42;;;20.40;84.30;;;;;;2086660;28;20013;-96
2021/06/28 05:18:29;;;;;;;4.95;3.88;;;20.40;84.20;;;;;;2080726;28;20129;-96
2021/06/28 05:19:34;;;;;;;4.82;3.67;;;20.50;84.10;;;;;;2080032;28;20023;-96
2021/06/28 05:20:48;;;;;;;5.72;4.10;;;20.50;83.90;;;;;;2090176;28;20038;-96